createdAt,value
2023-02-24T00:00:30.908Z,57.42
2023-02-24T00:03:00.307Z,26.75
2023-02-24T00:05:27.709Z,32.47
2023-02-24T00:07:57.239Z,22.20
2023-02-24T00:10:25.941Z,16.33
2023-02-24T00:12:54.006Z,21.15
2023-02-24T00:15:26.941Z,13.57
2023-02-24T00:17:54.624Z,18.52
2023-02-24T00:20:21.927Z,15.73
2023-02-24T00:22:49.142Z,12.80
2023-02-24T00:25:16.738Z,17.33
2023-02-24T00:27:43.955Z,14.52
2023-02-24T00:30:12.073Z,15.98
2023-02-24T00:32:40.467Z,13.48
2023-02-24T00:35:08.921Z,17.73
2023-02-24T00:37:36.281Z,15.95
2023-02-24T00:40:11.039Z,16.58
2023-02-24T00:42:42.703Z,17.08
2023-02-24T00:45:10.438Z,21.70
2023-02-24T00:47:42.154Z,15.10
2023-02-24T00:50:10.230Z,14.98
2023-02-24T00:52:37.846Z,20.40
2023-02-24T00:55:14.071Z,16.15
2023-02-24T00:57:41.632Z,19.80
2023-02-24T01:00:13.615Z,15.07
2023-02-24T01:02:44.762Z,13.35
2023-02-24T01:05:13.313Z,14.40
2023-02-24T01:07:41.746Z,10.57
2023-02-24T01:10:12.399Z,20.85
2023-02-24T01:12:50.091Z,23.17
2023-02-24T01:15:18.351Z,15.65
2023-02-24T01:17:47.969Z,11.73
2023-02-24T01:20:18.815Z,16.85
2023-02-24T01:22:50.552Z,17.08
2023-02-24T01:25:20.130Z,14.95
2023-02-24T01:27:47.827Z,20.05
2023-02-24T01:30:18.469Z,15.43
2023-02-24T01:32:47.554Z,16.33
2023-02-24T01:35:15.702Z,14.30
2023-02-24T01:37:43.669Z,22.13
2023-02-24T01:40:18.019Z,25.77
2023-02-24T01:42:47.706Z,19.92
2023-02-24T01:45:18.159Z,16.52
2023-02-24T01:47:47.422Z,17.48
2023-02-24T01:50:16.140Z,23.27
2023-02-24T01:52:45.613Z,17.40
2023-02-24T01:55:14.531Z,18.50
2023-02-24T01:57:42.491Z,20.90
2023-02-24T02:00:12.275Z,21.38
2023-02-24T02:02:42.433Z,26.13
2023-02-24T02:05:10.129Z,21.73
2023-02-24T02:07:39.033Z,18.92
2023-02-24T02:10:07.254Z,18.45
2023-02-24T02:12:44.206Z,14.45
2023-02-24T02:15:13.538Z,19.95
2023-02-24T02:17:43.733Z,21.80
2023-02-24T02:20:26.949Z,14.27
2023-02-24T02:23:18.555Z,17.95
2023-02-24T02:26:01.048Z,18.77
2023-02-24T02:28:46.769Z,12.95
2023-02-24T02:31:55.397Z,14.80
2023-02-24T02:34:31.447Z,9.45
2023-02-24T02:37:09.117Z,13.82
2023-02-24T02:39:46.659Z,16.85
2023-02-24T02:42:30.845Z,14.50
2023-02-24T02:45:13.369Z,11.73
2023-02-24T02:47:53.966Z,8.18
2023-02-24T02:50:49.043Z,11.88
2023-02-24T02:53:23.059Z,11.55
2023-02-24T02:55:59.465Z,14.75
2023-02-24T02:58:30.499Z,10.65
2023-02-24T03:01:02.651Z,16.17
2023-02-24T03:03:36.264Z,15.32
2023-02-24T03:06:06.488Z,15.00
2023-02-24T03:08:37.313Z,11.88
2023-02-24T03:11:05.644Z,21.13
2023-02-24T03:13:39.295Z,11.10
2023-02-24T03:16:07.162Z,16.80
2023-02-24T03:18:37.331Z,15.90
2023-02-24T03:21:17.749Z,11.60
2023-02-24T03:23:48.639Z,13.07
2023-02-24T03:26:22.047Z,14.05
2023-02-24T03:29:19.436Z,12.20
2023-02-24T03:31:51.006Z,13.13
2023-02-24T03:34:24.160Z,16.38
2023-02-24T03:36:54.456Z,12.43
2023-02-24T03:39:21.747Z,10.95
2023-02-24T03:41:50.810Z,13.43
2023-02-24T03:44:18.001Z,13.35
2023-02-24T03:46:45.212Z,13.43
2023-02-24T03:49:13.644Z,12.57
2023-02-24T03:51:44.825Z,19.55
2023-02-24T03:54:38.548Z,13.30
2023-02-24T03:57:34.746Z,9.27
2023-02-24T04:00:21.410Z,11.18
2023-02-24T04:02:51.004Z,11.10
2023-02-24T04:05:21.350Z,13.90
2023-02-24T04:08:04.395Z,12.38
2023-02-24T04:10:52.595Z,13.43
2023-02-24T04:13:19.838Z,8.65
2023-02-24T04:15:58.985Z,13.90
2023-02-24T04:18:29.873Z,15.10
2023-02-24T04:20:59.732Z,17.65
2023-02-24T04:23:31.605Z,12.65
2023-02-24T04:26:00.900Z,12.68
2023-02-24T04:28:28.380Z,16.17
2023-02-24T04:30:58.643Z,18.83
2023-02-24T04:33:26.032Z,22.70
2023-02-24T04:35:53.496Z,24.05
2023-02-24T04:38:20.936Z,17.38
2023-02-24T04:40:49.881Z,11.20
2023-02-24T04:43:18.099Z,11.43
2023-02-24T04:45:45.401Z,12.70
2023-02-24T04:48:13.272Z,12.23
2023-02-24T04:50:43.079Z,11.43
2023-02-24T04:53:14.660Z,11.05
2023-02-24T04:58:21.372Z,13.43
2023-02-24T05:00:49.362Z,14.57
2023-02-24T05:03:17.369Z,10.80
2023-02-24T05:05:58.089Z,9.05
2023-02-24T05:08:27.249Z,17.02
2023-02-24T05:10:54.589Z,9.07
2023-02-24T05:13:27.980Z,10.43
2023-02-24T05:15:57.208Z,10.23
2023-02-24T05:18:35.891Z,9.65
2023-02-24T05:21:29.847Z,11.55
2023-02-24T05:23:59.118Z,12.40
2023-02-24T05:26:44.032Z,12.63
2023-02-24T05:29:14.857Z,13.20
2023-02-24T05:31:42.508Z,18.60
2023-02-24T05:34:17.077Z,13.13
2023-02-24T05:36:46.061Z,16.63
2023-02-24T05:39:19.202Z,16.92
2023-02-24T05:41:49.184Z,10.20
2023-02-24T05:44:22.642Z,14.68
2023-02-24T05:46:56.741Z,18.15
2023-02-24T05:49:27.472Z,15.35
2023-02-24T05:51:56.360Z,12.00
2023-02-24T05:54:32.576Z,10.55
2023-02-24T05:57:12.059Z,10.82
2023-02-24T05:59:41.187Z,13.27
2023-02-24T06:02:13.872Z,12.85
2023-02-24T06:04:51.287Z,14.25
2023-02-24T06:07:25.022Z,18.67
2023-02-24T06:09:58.343Z,10.35
2023-02-24T06:12:30.592Z,8.02
2023-02-24T06:15:07.659Z,16.15
2023-02-24T06:17:35.300Z,12.02
2023-02-24T06:20:12.991Z,15.88
2023-02-24T06:22:42.484Z,17.13
2023-02-24T06:25:14.088Z,14.13
2023-02-24T06:27:43.175Z,14.82
2023-02-24T06:30:11.354Z,16.40
2023-02-24T06:32:39.187Z,18.85
2023-02-24T06:35:07.032Z,16.90
2023-02-24T06:37:35.841Z,13.23
2023-02-24T06:40:09.027Z,13.90
2023-02-24T06:42:36.450Z,14.10
2023-02-24T06:45:08.358Z,12.23
2023-02-24T06:47:36.205Z,8.38
2023-02-24T06:50:06.918Z,11.05
2023-02-24T06:52:34.410Z,17.05
2023-02-24T06:55:04.786Z,10.85
2023-02-24T06:57:35.617Z,16.38
2023-02-24T07:00:17.463Z,11.45
2023-02-24T07:02:45.502Z,8.35
2023-02-24T07:05:17.060Z,12.77
2023-02-24T07:07:46.037Z,17.30
2023-02-24T07:10:15.641Z,10.15
2023-02-24T07:12:43.035Z,11.68
2023-02-24T07:15:10.613Z,15.00
2023-02-24T07:17:38.632Z,14.48
2023-02-24T07:20:12.079Z,13.77
2023-02-24T07:22:39.353Z,18.55
2023-02-24T07:25:07.281Z,18.15
2023-02-24T07:27:36.726Z,22.95
2023-02-24T07:30:06.477Z,22.33
2023-02-24T07:32:34.314Z,19.45
2023-02-24T07:35:01.620Z,19.63
2023-02-24T07:37:31.738Z,15.15
2023-02-24T07:39:59.682Z,16.10
2023-02-24T07:42:30.563Z,9.77
2023-02-24T07:44:57.848Z,13.68
2023-02-24T07:47:26.513Z,15.13
2023-02-24T07:49:55.399Z,12.48
2023-02-24T07:52:22.764Z,20.55
2023-02-24T07:54:51.586Z,14.68
2023-02-24T07:57:19.538Z,18.48
2023-02-24T07:59:47.594Z,10.40
2023-02-24T08:02:15.949Z,10.57
2023-02-24T08:04:50.075Z,11.88
2023-02-24T08:07:25.022Z,18.40
2023-02-24T08:10:14.428Z,13.65
2023-02-24T08:12:44.717Z,9.80
2023-02-24T08:15:23.666Z,14.73
2023-02-24T08:17:57.428Z,12.55
2023-02-24T08:20:26.379Z,12.15
2023-02-24T08:22:54.158Z,12.35
2023-02-24T08:25:38.490Z,14.63
2023-02-24T08:28:11.436Z,8.75
2023-02-24T08:30:45.449Z,11.95
2023-02-24T08:33:18.952Z,13.13
2023-02-24T08:35:50.943Z,11.43
2023-02-24T08:38:19.591Z,9.00
2023-02-24T08:40:50.675Z,13.48
2023-02-24T08:43:29.062Z,8.10
2023-02-24T08:46:03.594Z,14.60
2023-02-24T08:48:42.319Z,33.95
2023-02-24T08:51:09.597Z,26.85
2023-02-24T08:53:40.459Z,14.38
2023-02-24T08:56:11.372Z,8.85
2023-02-24T08:58:47.520Z,9.60
2023-02-24T09:01:25.998Z,5.63
2023-02-24T09:03:57.838Z,6.05
2023-02-24T09:06:37.445Z,7.05
2023-02-24T09:09:23.093Z,8.40
2023-02-24T09:11:58.708Z,6.10
2023-02-24T09:14:36.423Z,12.38
2023-02-24T09:17:11.790Z,8.65
2023-02-24T09:19:47.460Z,4.20
2023-02-24T09:22:42.993Z,4.25
2023-02-24T09:25:19.062Z,9.05
2023-02-24T09:28:09.244Z,13.10
2023-02-24T09:30:54.060Z,10.20
2023-02-24T09:33:27.046Z,10.98
2023-02-24T09:36:13.021Z,5.50
2023-02-24T09:39:07.483Z,4.13
2023-02-24T09:42:01.848Z,7.53
2023-02-24T09:44:38.471Z,7.28
2023-02-24T09:47:14.046Z,5.10
2023-02-24T09:49:46.541Z,7.82
2023-02-24T09:52:19.102Z,6.93
2023-02-24T09:55:07.318Z,6.65
2023-02-24T09:57:55.148Z,11.15
2023-02-24T10:00:24.852Z,6.63
2023-02-24T10:03:00.244Z,4.78
2023-02-24T10:05:38.350Z,6.97
2023-02-24T10:08:13.774Z,6.15
2023-02-24T10:11:00.797Z,6.22
2023-02-24T10:13:33.265Z,5.55
2023-02-24T10:16:07.807Z,7.35
2023-02-24T10:18:43.450Z,11.90
2023-02-24T10:21:19.434Z,7.20
2023-02-24T10:24:08.838Z,4.45
2023-02-24T10:26:51.261Z,6.60
2023-02-24T10:29:31.342Z,5.20
2023-02-24T10:32:07.007Z,6.93
2023-02-24T10:34:36.461Z,4.95
2023-02-24T10:37:30.288Z,7.72
2023-02-24T10:40:09.705Z,5.80
2023-02-24T10:42:44.474Z,7.60
2023-02-24T10:45:26.295Z,8.52
2023-02-24T10:47:57.761Z,8.13
2023-02-24T10:50:27.109Z,5.13
2023-02-24T10:53:34.555Z,8.07
2023-02-24T10:56:15.473Z,11.23
2023-02-24T10:58:56.413Z,7.85
2023-02-24T11:01:49.648Z,4.38
2023-02-24T11:04:32.987Z,6.00
2023-02-24T11:07:11.792Z,5.47
2023-02-24T11:09:52.753Z,5.25
2023-02-24T11:12:41.864Z,10.48
2023-02-24T11:15:37.874Z,5.72
2023-02-24T11:18:10.535Z,8.48
2023-02-24T11:21:04.915Z,5.82
2023-02-24T11:23:39.587Z,9.50
2023-02-24T11:26:21.671Z,7.88
2023-02-24T11:29:22.383Z,6.07
2023-02-24T11:32:11.646Z,9.38
2023-02-24T11:35:05.790Z,8.65
2023-02-24T11:37:46.152Z,8.27
2023-02-24T11:40:18.927Z,7.00
2023-02-24T11:42:57.665Z,10.00
2023-02-24T11:45:36.387Z,7.50
2023-02-24T11:48:14.892Z,6.22
2023-02-24T11:51:33.240Z,9.27
2023-02-24T11:54:10.144Z,4.65
2023-02-24T11:56:54.924Z,8.75
2023-02-24T11:59:38.390Z,6.40
2023-02-24T12:02:15.625Z,5.47
2023-02-24T12:04:49.038Z,6.53
2023-02-24T12:07:28.441Z,7.82
2023-02-24T12:10:15.513Z,7.32
2023-02-24T12:13:10.891Z,8.10
2023-02-24T12:16:04.149Z,6.22
2023-02-24T12:18:37.480Z,6.05
2023-02-24T12:21:06.775Z,6.03
2023-02-24T12:23:37.630Z,6.93
2023-02-24T12:26:25.241Z,5.47
2023-02-24T12:29:32.582Z,5.03
2023-02-24T12:32:25.183Z,11.63
2023-02-24T12:34:57.356Z,7.40
2023-02-24T12:37:35.747Z,5.97
2023-02-24T12:40:06.251Z,6.05
2023-02-24T12:43:04.194Z,13.18
2023-02-24T12:45:34.839Z,8.00
2023-02-24T12:48:33.502Z,6.73
2023-02-24T12:51:17.365Z,5.40
2023-02-24T12:53:58.256Z,7.97
2023-02-24T12:56:39.321Z,7.20
2023-02-24T12:59:06.736Z,6.97
2023-02-24T13:01:57.879Z,6.95
2023-02-24T13:04:32.941Z,7.38
2023-02-24T13:07:19.293Z,10.48
2023-02-24T13:10:11.699Z,7.20
2023-02-24T13:13:15.620Z,8.95
2023-02-24T13:15:53.604Z,8.13
2023-02-24T13:18:32.698Z,9.75
2023-02-24T13:21:04.800Z,9.88
2023-02-24T13:23:32.902Z,10.10
2023-02-24T13:26:00.190Z,8.10
2023-02-24T13:28:28.252Z,8.35
2023-02-24T13:31:12.533Z,8.85
2023-02-24T13:33:43.730Z,7.32
2023-02-24T13:36:21.620Z,8.00
2023-02-24T13:38:52.737Z,8.80
2023-02-24T13:41:23.364Z,6.03
2023-02-24T13:44:04.125Z,6.93
2023-02-24T13:46:56.022Z,6.83
2023-02-24T13:49:41.981Z,9.15
2023-02-24T13:52:36.308Z,7.68
2023-02-24T13:55:23.869Z,7.80
2023-02-24T13:58:10.284Z,8.57
2023-02-24T14:00:58.913Z,7.00
2023-02-24T14:03:27.199Z,15.00
2023-02-24T14:05:55.267Z,6.95
2023-02-24T14:09:01.026Z,7.55
2023-02-24T14:11:30.539Z,7.95
2023-02-24T14:13:58.050Z,7.15
2023-02-24T14:16:32.590Z,6.50
2023-02-24T14:19:03.766Z,5.78
2023-02-24T14:21:32.842Z,5.03
2023-02-24T14:24:01.705Z,7.80
2023-02-24T14:26:38.933Z,7.72
2023-02-24T14:29:06.873Z,6.03
2023-02-24T14:31:34.261Z,7.32
2023-02-24T14:34:02.962Z,6.80
2023-02-24T14:36:41.373Z,7.93
2023-02-24T14:39:20.760Z,5.82
2023-02-24T14:41:48.095Z,6.05
2023-02-24T14:44:26.006Z,5.50
2023-02-24T14:46:54.096Z,5.15
2023-02-24T14:49:30.606Z,9.65
2023-02-24T14:52:00.565Z,11.38
2023-02-24T14:57:20.290Z,6.38
2023-02-24T14:59:51.117Z,6.25
2023-02-24T15:02:20.072Z,11.20
2023-02-24T15:04:47.495Z,8.32
2023-02-24T15:07:19.533Z,8.10
2023-02-24T15:09:47.425Z,7.53
2023-02-24T15:12:17.555Z,6.70
2023-02-24T15:14:53.058Z,5.40
2023-02-24T15:17:20.810Z,8.18
2023-02-24T15:19:54.272Z,7.72
2023-02-24T15:22:28.457Z,4.85
2023-02-24T15:25:16.796Z,10.00
2023-02-24T15:27:57.956Z,10.23
2023-02-24T15:31:03.213Z,14.60
2023-02-24T15:33:41.781Z,7.65
2023-02-24T15:36:17.275Z,6.43
2023-02-24T15:38:47.089Z,11.20
2023-02-24T15:41:14.458Z,10.00
2023-02-24T15:43:47.423Z,13.90
2023-02-24T15:46:18.338Z,14.90
2023-02-24T15:48:46.939Z,11.80
2023-02-24T15:51:24.656Z,7.20
2023-02-24T15:53:52.186Z,7.88
2023-02-24T15:56:19.749Z,11.85
2023-02-24T15:58:47.287Z,8.88
2023-02-24T16:01:15.853Z,10.23
2023-02-24T16:03:43.190Z,6.70
2023-02-24T16:06:18.497Z,9.30
2023-02-24T16:08:47.841Z,11.70
2023-02-24T16:11:16.213Z,5.93
2023-02-24T16:13:51.095Z,7.47
2023-02-24T16:16:18.489Z,12.05
2023-02-24T16:18:45.729Z,10.93
2023-02-24T16:21:14.022Z,10.40
2023-02-24T16:23:41.701Z,17.30
2023-02-24T16:26:17.023Z,10.27
2023-02-24T16:28:55.102Z,8.20
2023-02-24T16:31:23.512Z,6.18
2023-02-24T16:33:55.349Z,6.10
2023-02-24T16:36:24.413Z,9.85
2023-02-24T16:38:52.056Z,7.63
2023-02-24T16:41:19.717Z,9.23
2023-02-24T16:43:47.170Z,8.18
2023-02-24T16:46:18.380Z,6.30
2023-02-24T16:48:47.057Z,8.80
2023-02-24T16:51:14.510Z,8.93
2023-02-24T16:53:41.824Z,6.13
2023-02-24T16:56:09.287Z,9.48
2023-02-24T16:58:37.140Z,13.13
2023-02-24T17:01:05.107Z,9.32
2023-02-24T17:03:42.671Z,8.70
2023-02-24T17:06:10.151Z,5.07
2023-02-24T17:08:37.567Z,8.70
2023-02-24T17:11:05.284Z,7.03
2023-02-24T17:13:32.632Z,13.05
2023-02-24T17:16:02.851Z,8.05
2023-02-24T17:18:31.010Z,9.95
2023-02-24T17:20:58.247Z,7.20
2023-02-24T17:23:26.626Z,8.25
2023-02-24T17:25:55.811Z,6.90
2023-02-24T17:28:27.919Z,8.65
2023-02-24T17:30:55.303Z,6.78
2023-02-24T17:33:22.867Z,7.18
2023-02-24T17:35:50.154Z,5.82
2023-02-24T17:38:19.241Z,9.15
2023-02-24T17:40:48.509Z,4.07
2023-02-24T17:43:16.055Z,4.63
2023-02-24T17:45:46.413Z,8.55
2023-02-24T17:48:15.340Z,8.57
2023-02-24T17:50:46.744Z,6.97
2023-02-24T17:53:15.114Z,6.97
2023-02-24T17:56:00.990Z,6.47
2023-02-24T17:58:29.343Z,9.57
2023-02-24T18:00:56.981Z,6.90
2023-02-24T18:03:25.437Z,5.40
2023-02-24T18:06:06.614Z,5.13
2023-02-24T18:08:34.119Z,7.00
2023-02-24T18:11:01.810Z,7.03
2023-02-24T18:13:32.712Z,7.97
2023-02-24T18:16:00.187Z,6.88
2023-02-24T18:18:27.836Z,9.48
2023-02-24T18:20:58.675Z,11.55
2023-02-24T18:23:26.134Z,7.93
2023-02-24T18:25:54.130Z,6.30
2023-02-24T18:28:26.569Z,6.90
2023-02-24T18:30:55.124Z,6.65
2023-02-24T18:33:22.715Z,10.10
2023-02-24T18:35:57.993Z,6.30
2023-02-24T18:38:27.672Z,8.40
2023-02-24T18:41:02.187Z,9.90
2023-02-24T18:43:30.040Z,7.88
2023-02-24T18:45:58.667Z,9.55
2023-02-24T18:48:26.042Z,7.50
2023-02-24T18:50:53.870Z,8.38
2023-02-24T18:53:21.562Z,11.50
2023-02-24T18:55:48.932Z,6.38
2023-02-24T18:58:16.383Z,7.80
2023-02-24T19:00:45.229Z,7.63
2023-02-24T19:03:13.241Z,5.97
2023-02-24T19:05:41.303Z,12.20
2023-02-24T19:08:08.698Z,8.60
2023-02-24T19:10:40.261Z,7.68
2023-02-24T19:13:07.733Z,9.48
2023-02-24T19:15:36.310Z,10.52
2023-02-24T19:18:07.663Z,16.00
2023-02-24T19:20:35.899Z,13.73
2023-02-24T19:23:03.453Z,10.15
2023-02-24T19:25:31.774Z,14.00
2023-02-24T19:27:59.104Z,7.95
2023-02-24T19:30:26.509Z,8.18
2023-02-24T19:32:53.920Z,12.55
2023-02-24T19:35:21.505Z,11.02
2023-02-24T19:37:48.900Z,9.23
2023-02-24T19:40:18.241Z,12.65
2023-02-24T19:42:47.197Z,10.40
2023-02-24T19:45:17.184Z,10.75
2023-02-24T19:47:46.895Z,8.77
2023-02-24T19:50:22.278Z,10.43
2023-02-24T19:52:49.581Z,11.95
2023-02-24T19:55:17.134Z,11.85
2023-02-24T19:57:45.465Z,7.75
2023-02-24T20:00:13.366Z,7.18
2023-02-24T20:02:40.843Z,10.10
2023-02-24T20:05:10.399Z,11.48
2023-02-24T20:07:38.723Z,12.90
2023-02-24T20:10:07.050Z,9.70
2023-02-24T20:12:34.361Z,11.80
2023-02-24T20:15:01.789Z,11.95
2023-02-24T20:17:29.845Z,13.75
2023-02-24T20:19:59.930Z,9.85
2023-02-24T20:22:27.628Z,13.48
2023-02-24T20:24:54.915Z,12.10
2023-02-24T20:27:22.766Z,10.07
2023-02-24T20:29:52.362Z,11.48
2023-02-24T20:32:20.800Z,8.20
2023-02-24T20:34:48.397Z,15.93
2023-02-24T20:37:15.635Z,14.60
2023-02-24T20:39:42.917Z,11.45
2023-02-24T20:42:13.617Z,15.73
2023-02-24T20:44:41.273Z,12.65
2023-02-24T20:47:08.633Z,15.40
2023-02-24T20:49:37.418Z,10.43
2023-02-24T20:52:05.551Z,14.02
2023-02-24T20:54:32.809Z,10.40
2023-02-24T20:57:02.724Z,14.40
2023-02-24T20:59:30.196Z,13.63
2023-02-24T21:01:57.458Z,12.68
2023-02-24T21:04:24.856Z,11.93
2023-02-24T21:06:54.191Z,15.07
2023-02-24T21:09:27.375Z,17.92
2023-02-24T21:11:54.692Z,13.75
2023-02-24T21:14:22.994Z,9.27
2023-02-24T21:16:50.320Z,14.32
2023-02-24T21:19:20.229Z,15.48
2023-02-24T21:21:47.887Z,17.75
2023-02-24T21:24:15.657Z,14.88
2023-02-24T21:26:43.542Z,17.52
2023-02-24T21:29:11.873Z,11.95
2023-02-24T21:31:39.774Z,15.23
2023-02-24T21:34:07.246Z,15.07
2023-02-24T21:36:35.808Z,14.00
2023-02-24T21:39:03.677Z,16.45
2023-02-24T21:41:31.286Z,13.65
2023-02-24T21:44:00.534Z,15.32
2023-02-24T21:46:30.309Z,14.55
2023-02-24T21:48:58.010Z,15.80
2023-02-24T21:51:25.921Z,13.73
2023-02-24T21:53:57.146Z,18.20
2023-02-24T21:56:26.269Z,12.73
2023-02-24T21:58:58.731Z,17.85
2023-02-24T22:01:28.386Z,27.77
2023-02-24T22:03:56.711Z,14.52
2023-02-24T22:06:26.123Z,16.42
2023-02-24T22:08:55.640Z,14.52
2023-02-24T22:11:25.217Z,17.00
2023-02-24T22:13:52.457Z,18.90
2023-02-24T22:16:25.411Z,22.48
2023-02-24T22:18:53.293Z,15.27
2023-02-24T22:21:21.741Z,17.73
2023-02-24T22:23:50.466Z,16.15
2023-02-24T22:26:18.301Z,18.27
2023-02-24T22:28:46.870Z,14.73
2023-02-24T22:31:21.631Z,12.63
2023-02-24T22:33:49.130Z,15.55
2023-02-24T22:36:18.469Z,12.63
2023-02-24T22:38:47.244Z,17.75
2023-02-24T22:41:22.150Z,11.95
2023-02-24T22:43:49.668Z,20.40
2023-02-24T22:46:21.227Z,15.52
2023-02-24T22:48:50.400Z,15.88
2023-02-24T22:51:18.652Z,13.48
2023-02-24T22:53:51.221Z,13.80
2023-02-24T22:56:20.953Z,19.25
2023-02-24T22:58:48.466Z,13.88
2023-02-24T23:01:22.267Z,16.30
2023-02-24T23:03:49.761Z,12.80
2023-02-24T23:06:18.828Z,10.77
2023-02-24T23:08:47.437Z,12.98
2023-02-24T23:11:40.894Z,16.63
2023-02-24T23:14:10.626Z,12.18
2023-02-24T23:16:38.977Z,13.00
2023-02-24T23:19:08.772Z,21.27
2023-02-24T23:21:40.531Z,12.02
2023-02-24T23:24:10.864Z,12.65
2023-02-24T23:26:41.911Z,11.88
2023-02-24T23:29:12.604Z,14.50
2023-02-24T23:31:40.791Z,10.43
2023-02-24T23:34:10.774Z,17.88
2023-02-24T23:36:40.060Z,17.38
2023-02-24T23:39:12.763Z,12.05
2023-02-24T23:41:41.544Z,12.80
2023-02-24T23:44:09.405Z,14.05
2023-02-24T23:46:36.870Z,13.05
2023-02-24T23:49:04.818Z,12.38
2023-02-24T23:51:47.164Z,16.45
2023-02-24T23:54:15.933Z,12.63
2023-02-24T23:56:43.737Z,17.08
2023-02-24T23:59:11.930Z,12.45
